Buford, Texas
Current Conditions -  °F | °C
As of 6:35 PM on Sunday 21 Dec 2014 (Local Time) from KSNK Reporting Station
Clear Clear  
Wind Chill: 59°   Ceiling: Unl
Heat Index: 59°   Visibility: 10mi
Dew Point: 29°   Wind: 8mph
Humidity: 32%   Direction: 200°SSW
Pressure: 29.7"   Gusts: NA
Location:  32.4169°N, 100.857°W
Report Text: KSNK 220035Z AUTO 20007KT 10SM CLR 15/M01 A2970 RMK AO2 T01511014
Loading
Personal Weather Stations






























Interactive Weather Map New forecast layout! Learn more

10-Day Weather Forecast

Advertisements
Track Severe Weather on mobile